createdAt,value
2023-03-06T00:00:20.571Z,1.18
2023-03-06T00:02:47.070Z,1.02
2023-03-06T00:05:14.734Z,1.03
2023-03-06T00:07:41.716Z,1.03
2023-03-06T00:10:11.182Z,1.07
2023-03-06T00:12:37.580Z,1.04
2023-03-06T00:15:05.709Z,1.01
2023-03-06T00:17:32.296Z,1.01
2023-03-06T00:19:58.687Z,1.00
2023-03-06T00:22:25.230Z,1.01
2023-03-06T00:24:54.202Z,1.01
2023-03-06T00:27:21.362Z,1.01
2023-03-06T00:29:50.467Z,1.03
2023-03-06T00:32:16.956Z,1.05
2023-03-06T00:34:43.381Z,1.04
2023-03-06T00:37:09.825Z,1.03
2023-03-06T00:39:36.933Z,1.04
2023-03-06T00:42:03.419Z,1.04
2023-03-06T00:44:29.826Z,1.05
2023-03-06T00:46:56.225Z,1.02
2023-03-06T00:49:23.455Z,1.01
2023-03-06T00:51:49.918Z,0.99
2023-03-06T00:54:16.321Z,0.99
2023-03-06T00:56:42.739Z,0.95
2023-03-06T00:59:10.370Z,0.93
2023-03-06T01:01:36.878Z,0.97
2023-03-06T01:04:03.625Z,0.91
2023-03-06T01:06:30.308Z,0.72
2023-03-06T01:08:56.733Z,0.80
2023-03-06T01:11:25.032Z,0.84
2023-03-06T01:13:51.589Z,0.84
2023-03-06T01:16:21.287Z,0.87
2023-03-06T01:18:49.433Z,0.87
2023-03-06T01:21:16.379Z,0.88
2023-03-06T01:23:42.984Z,0.89
2023-03-06T01:26:09.631Z,0.88
2023-03-06T01:28:37.602Z,0.89
2023-03-06T01:31:04.638Z,0.87
2023-03-06T01:33:31.777Z,0.81
2023-03-06T01:35:58.185Z,0.84
2023-03-06T01:38:24.733Z,0.84
2023-03-06T01:40:51.542Z,0.85
2023-03-06T01:43:32.910Z,0.85
2023-03-06T01:46:18.158Z,0.90
2023-03-06T01:48:46.513Z,0.92
2023-03-06T01:51:12.977Z,0.93
2023-03-06T01:53:41.545Z,0.92
2023-03-06T01:56:08.170Z,0.94
2023-03-06T01:58:34.773Z,0.93
2023-03-06T02:01:01.252Z,0.93
2023-03-06T02:03:29.877Z,0.93
2023-03-06T02:05:57.631Z,0.88
2023-03-06T02:08:24.479Z,0.89
2023-03-06T02:11:14.703Z,0.92
2023-03-06T02:13:43.062Z,0.89
2023-03-06T02:16:11.135Z,0.89
2023-03-06T02:18:40.648Z,0.88
2023-03-06T02:21:09.420Z,0.87
2023-03-06T02:24:09.622Z,0.85
2023-03-06T02:26:37.457Z,0.88
2023-03-06T02:29:04.183Z,0.89
2023-03-06T02:31:33.265Z,0.92
2023-03-06T02:34:05.338Z,0.91
2023-03-06T02:36:35.119Z,0.91
2023-03-06T02:39:01.952Z,0.90
2023-03-06T02:41:28.404Z,0.91
2023-03-06T02:43:55.027Z,0.93
2023-03-06T02:46:21.589Z,0.92
2023-03-06T02:48:48.079Z,0.92
2023-03-06T02:51:14.487Z,0.95
2023-03-06T02:53:40.963Z,0.92
2023-03-06T02:56:07.799Z,0.88
2023-03-06T02:58:34.615Z,0.86
2023-03-06T03:01:01.266Z,0.91
2023-03-06T03:03:29.184Z,0.93
2023-03-06T03:05:57.756Z,0.95
2023-03-06T03:08:28.636Z,0.98
2023-03-06T03:10:58.845Z,0.98
2023-03-06T03:13:29.313Z,0.96
2023-03-06T03:16:01.056Z,0.96
2023-03-06T03:18:27.656Z,0.93
2023-03-06T03:20:54.747Z,0.96
2023-03-06T03:23:22.866Z,0.94
2023-03-06T03:25:49.316Z,0.93
2023-03-06T03:28:17.303Z,0.93
2023-03-06T03:30:45.440Z,0.92
2023-03-06T03:33:12.876Z,0.91
2023-03-06T03:35:39.434Z,0.91
2023-03-06T03:38:05.868Z,0.90
2023-03-06T03:40:32.565Z,0.91
2023-03-06T03:42:59.329Z,0.91
2023-03-06T03:45:25.845Z,0.91
2023-03-06T03:47:52.433Z,0.89
2023-03-06T03:50:20.071Z,0.87
2023-03-06T03:52:47.299Z,0.89
2023-03-06T03:55:13.722Z,0.89
2023-03-06T03:57:43.005Z,0.91
2023-03-06T04:00:14.751Z,0.87
2023-03-06T04:02:47.601Z,0.89
2023-03-06T04:05:27.218Z,0.89
2023-03-06T04:07:53.696Z,0.91
2023-03-06T04:10:21.752Z,0.91
2023-03-06T04:12:49.141Z,0.90
2023-03-06T04:15:16.426Z,0.89
2023-03-06T04:17:45.604Z,0.87
2023-03-06T04:20:16.329Z,0.87
2023-03-06T04:22:43.934Z,0.87
2023-03-06T04:25:12.288Z,0.82
2023-03-06T04:27:38.792Z,0.82
2023-03-06T04:30:06.703Z,0.83
2023-03-06T04:32:34.776Z,0.83
2023-03-06T04:35:01.873Z,0.83
2023-03-06T04:37:33.545Z,0.83
2023-03-06T04:40:01.060Z,0.83
2023-03-06T04:42:27.724Z,0.88
2023-03-06T04:44:54.099Z,0.85
2023-03-06T04:47:20.513Z,0.87
2023-03-06T04:49:46.905Z,0.84
2023-03-06T04:52:13.347Z,0.82
2023-03-06T04:54:39.745Z,0.82
2023-03-06T04:57:06.210Z,0.88
2023-03-06T04:59:32.608Z,0.80
2023-03-06T05:01:59.130Z,0.84
2023-03-06T05:04:25.623Z,0.85
2023-03-06T05:06:52.025Z,0.85
2023-03-06T05:09:18.421Z,0.83
2023-03-06T05:11:44.824Z,0.88
2023-03-06T05:14:11.211Z,0.87
2023-03-06T05:16:37.689Z,0.85
2023-03-06T05:19:04.191Z,0.83
2023-03-06T05:21:30.597Z,0.87
2023-03-06T05:23:57.127Z,0.89
2023-03-06T05:26:23.542Z,0.90
2023-03-06T05:28:49.934Z,0.88
2023-03-06T05:31:16.512Z,0.83
2023-03-06T05:33:42.981Z,0.79
2023-03-06T05:36:10.292Z,0.78
2023-03-06T05:38:36.788Z,0.75
2023-03-06T05:41:03.739Z,0.76
2023-03-06T05:43:30.171Z,0.74
2023-03-06T05:46:06.640Z,0.66
2023-03-06T05:48:34.397Z,0.62
2023-03-06T05:51:01.631Z,0.54
2023-03-06T05:53:29.287Z,0.52
2023-03-06T05:56:01.208Z,0.47
2023-03-06T05:58:28.822Z,0.47
2023-03-06T06:00:55.269Z,0.43
2023-03-06T06:03:22.107Z,0.44
2023-03-06T06:05:48.676Z,0.50
2023-03-06T06:08:15.334Z,0.47
2023-03-06T06:10:41.802Z,0.39
2023-03-06T06:13:08.581Z,0.39
2023-03-06T06:15:35.025Z,0.40
2023-03-06T06:18:01.477Z,0.36
2023-03-06T06:20:28.442Z,0.37
2023-03-06T06:22:55.005Z,0.39
2023-03-06T06:25:21.453Z,0.48
2023-03-06T06:27:47.900Z,0.40
2023-03-06T06:30:14.507Z,0.36
2023-03-06T06:32:41.037Z,0.35
2023-03-06T06:35:07.699Z,0.33
2023-03-06T06:37:34.112Z,0.39
2023-03-06T06:40:00.529Z,0.32
2023-03-06T06:42:35.185Z,0.30
2023-03-06T06:45:05.493Z,0.42
2023-03-06T06:47:34.100Z,0.42
2023-03-06T06:50:00.699Z,0.44
2023-03-06T06:52:27.161Z,0.48
2023-03-06T06:54:53.776Z,0.42
2023-03-06T06:57:20.252Z,0.36
2023-03-06T06:59:46.663Z,0.36
2023-03-06T07:02:15.726Z,0.39
2023-03-06T07:05:00.384Z,0.43
2023-03-06T07:07:29.614Z,0.45
2023-03-06T07:09:56.320Z,0.39
2023-03-06T07:12:22.835Z,0.40
2023-03-06T07:14:49.208Z,0.46
2023-03-06T07:17:15.618Z,0.42
2023-03-06T07:19:42.035Z,0.45
2023-03-06T07:22:08.710Z,0.46
2023-03-06T07:24:35.208Z,0.42
2023-03-06T07:27:01.617Z,0.47
2023-03-06T07:29:28.012Z,0.59
2023-03-06T07:31:54.450Z,0.61
2023-03-06T07:34:20.845Z,0.57
2023-03-06T07:36:47.258Z,0.44
2023-03-06T07:39:13.708Z,0.45
2023-03-06T07:41:40.122Z,0.53
2023-03-06T07:44:06.716Z,0.40
2023-03-06T07:46:33.186Z,0.40
2023-03-06T07:48:59.667Z,0.45
2023-03-06T07:51:26.103Z,0.45
2023-03-06T07:53:52.551Z,0.34
2023-03-06T07:56:18.995Z,0.37
2023-03-06T07:58:47.170Z,0.50
2023-03-06T08:01:19.861Z,0.57
2023-03-06T08:03:47.177Z,0.50
2023-03-06T08:06:16.832Z,0.46
2023-03-06T08:08:44.989Z,0.49
2023-03-06T08:11:13.674Z,0.45
2023-03-06T08:13:40.771Z,0.25
2023-03-06T08:16:07.985Z,0.25
2023-03-06T08:18:34.560Z,0.21
2023-03-06T08:21:11.765Z,0.14
2023-03-06T08:23:38.743Z,0.16
2023-03-06T08:26:08.923Z,0.21
2023-03-06T08:28:35.450Z,0.25
2023-03-06T08:31:10.810Z,0.19
2023-03-06T08:33:37.514Z,0.09
2023-03-06T08:36:04.422Z,0.02
2023-03-06T08:38:30.914Z,0.02
2023-03-06T08:40:57.740Z,0.06
2023-03-06T08:43:24.154Z,0.15
2023-03-06T08:45:54.360Z,0.16
2023-03-06T08:48:20.866Z,0.21
2023-03-06T08:50:47.300Z,0.20
2023-03-06T08:53:13.784Z,0.28
2023-03-06T08:55:40.600Z,0.36
2023-03-06T08:58:07.124Z,0.48
2023-03-06T09:00:33.824Z,0.53
2023-03-06T09:03:00.338Z,0.63
2023-03-06T09:05:27.229Z,0.75
2023-03-06T09:07:53.645Z,0.76
2023-03-06T09:10:22.647Z,0.62
2023-03-06T09:12:51.941Z,0.44
2023-03-06T09:15:20.216Z,0.34
2023-03-06T09:17:47.334Z,0.56
2023-03-06T09:20:15.137Z,0.70
2023-03-06T09:22:45.544Z,0.58
2023-03-06T09:25:20.116Z,0.61
2023-03-06T09:27:51.395Z,0.65
2023-03-06T09:30:22.233Z,0.83
2023-03-06T09:32:48.657Z,0.90
2023-03-06T09:35:15.037Z,1.02
2023-03-06T09:37:41.859Z,0.93
2023-03-06T09:40:16.622Z,1.17
2023-03-06T09:42:43.058Z,1.26
2023-03-06T09:45:13.099Z,1.45
2023-03-06T09:47:53.182Z,1.20
2023-03-06T09:50:50.735Z,1.25
2023-03-06T09:53:20.090Z,1.41
2023-03-06T09:55:51.883Z,1.68
2023-03-06T09:58:22.747Z,1.75
2023-03-06T10:01:01.170Z,2.05
2023-03-06T10:03:36.156Z,2.20
2023-03-06T10:06:11.514Z,2.08
2023-03-06T10:08:59.375Z,2.01
2023-03-06T10:11:54.658Z,1.83
2023-03-06T10:14:34.992Z,2.07
2023-03-06T10:17:01.984Z,2.31
2023-03-06T10:19:34.565Z,2.31
2023-03-06T10:22:21.682Z,2.19
2023-03-06T10:25:19.608Z,2.38
2023-03-06T10:27:48.959Z,2.51
2023-03-06T10:30:33.482Z,2.44
2023-03-06T10:33:19.566Z,2.43
2023-03-06T10:35:49.489Z,2.09
2023-03-06T10:38:26.763Z,1.88
2023-03-06T10:41:11.507Z,1.85
2023-03-06T10:44:44.110Z,2.15
2023-03-06T10:47:31.646Z,2.08
2023-03-06T10:50:01.452Z,1.95
2023-03-06T10:52:30.350Z,2.06
2023-03-06T10:55:28.252Z,2.09
2023-03-06T10:57:54.861Z,2.40
2023-03-06T11:00:30.683Z,2.33
2023-03-06T11:03:20.875Z,2.16
2023-03-06T11:05:55.191Z,2.30
2023-03-06T11:08:22.702Z,2.50
2023-03-06T11:11:06.874Z,2.72
2023-03-06T11:13:38.345Z,2.71
2023-03-06T11:16:25.940Z,2.66
2023-03-06T11:18:59.392Z,2.74
2023-03-06T11:21:29.165Z,2.79
2023-03-06T11:24:04.058Z,2.52
2023-03-06T11:26:35.974Z,2.54
2023-03-06T11:29:26.557Z,2.68
2023-03-06T11:32:02.835Z,2.82
2023-03-06T11:34:53.090Z,2.90
2023-03-06T11:37:42.718Z,2.62
2023-03-06T11:40:09.216Z,2.62
2023-03-06T11:42:43.407Z,2.83
2023-03-06T11:45:46.207Z,2.65
2023-03-06T11:48:15.903Z,2.51
2023-03-06T11:50:53.549Z,2.74
2023-03-06T11:53:22.880Z,2.66
2023-03-06T11:56:19.686Z,2.36
2023-03-06T11:59:04.845Z,2.19
2023-03-06T12:02:02.165Z,2.30
2023-03-06T12:05:00.943Z,2.49
2023-03-06T12:07:40.279Z,2.64
2023-03-06T12:10:23.327Z,2.79
2023-03-06T12:13:05.436Z,2.96
2023-03-06T12:15:47.450Z,2.80
2023-03-06T12:18:19.990Z,2.88
2023-03-06T12:21:03.202Z,2.64
2023-03-06T12:23:51.250Z,2.55
2023-03-06T12:26:44.562Z,2.74
2023-03-06T12:29:39.372Z,2.88
2023-03-06T12:32:27.227Z,2.98
2023-03-06T12:35:28.613Z,3.14
2023-03-06T12:38:32.602Z,3.02
2023-03-06T12:41:40.886Z,2.95
2023-03-06T12:44:34.787Z,3.10
2023-03-06T12:47:23.982Z,2.95
2023-03-06T12:49:58.222Z,2.88
2023-03-06T12:52:31.230Z,2.92
2023-03-06T12:55:01.161Z,2.80
2023-03-06T12:57:27.723Z,3.06
2023-03-06T12:59:55.015Z,3.27
2023-03-06T13:03:02.220Z,3.14
2023-03-06T13:05:42.138Z,3.38
2023-03-06T13:08:11.253Z,3.24
2023-03-06T13:10:40.129Z,3.25
2023-03-06T13:13:24.725Z,3.12
2023-03-06T13:16:03.392Z,3.35
2023-03-06T13:18:32.812Z,3.24
2023-03-06T13:20:59.212Z,3.38
2023-03-06T13:23:43.158Z,3.24
2023-03-06T13:26:24.491Z,3.52
2023-03-06T13:28:53.910Z,3.55
2023-03-06T13:31:32.555Z,3.17
2023-03-06T13:34:00.667Z,2.94
2023-03-06T13:36:30.434Z,3.22
2023-03-06T13:39:10.624Z,3.27
2023-03-06T13:41:41.302Z,3.42
2023-03-06T13:44:25.763Z,3.60
2023-03-06T13:47:24.558Z,3.29
2023-03-06T13:49:51.077Z,3.04
2023-03-06T13:52:35.852Z,2.75
2023-03-06T13:55:30.142Z,2.66
2023-03-06T13:57:59.230Z,2.37
2023-03-06T14:00:37.938Z,2.18
2023-03-06T14:03:10.425Z,2.07
2023-03-06T14:05:46.104Z,1.88
2023-03-06T14:08:21.689Z,1.89
2023-03-06T14:10:59.474Z,2.02
2023-03-06T14:13:35.182Z,2.03
2023-03-06T14:16:17.245Z,1.85
2023-03-06T14:18:48.091Z,1.75
2023-03-06T14:21:21.276Z,1.82
2023-03-06T14:24:00.417Z,1.84
2023-03-06T14:26:31.614Z,1.97
2023-03-06T14:29:00.483Z,1.97
2023-03-06T14:31:42.572Z,2.03
2023-03-06T14:34:17.421Z,2.12
2023-03-06T14:36:47.488Z,2.09
2023-03-06T14:39:23.104Z,1.99
2023-03-06T14:41:49.995Z,1.89
2023-03-06T14:44:22.022Z,1.97
2023-03-06T14:46:51.620Z,1.99
2023-03-06T14:49:20.083Z,1.96
2023-03-06T14:51:52.209Z,1.84
2023-03-06T14:54:26.154Z,1.66
2023-03-06T14:56:58.044Z,1.58
2023-03-06T14:59:28.460Z,1.79
2023-03-06T15:02:04.268Z,1.90
2023-03-06T15:04:35.051Z,1.98
2023-03-06T15:07:09.747Z,2.07
2023-03-06T15:09:37.549Z,2.11
2023-03-06T15:12:03.975Z,2.13
2023-03-06T15:14:32.123Z,2.16
2023-03-06T15:17:16.933Z,2.20
2023-03-06T15:19:45.183Z,2.22
2023-03-06T15:22:41.913Z,2.15
2023-03-06T15:25:28.072Z,2.05
2023-03-06T15:27:57.598Z,1.95
2023-03-06T15:30:29.102Z,1.91
2023-03-06T15:33:18.151Z,1.96
2023-03-06T15:36:01.757Z,1.83
2023-03-06T15:38:41.927Z,1.77
2023-03-06T15:41:33.489Z,1.87
2023-03-06T15:44:02.541Z,1.74
2023-03-06T15:46:29.544Z,1.68
2023-03-06T15:49:06.902Z,1.54
2023-03-06T15:51:33.372Z,1.48
2023-03-06T15:54:11.188Z,1.50
2023-03-06T15:56:40.962Z,1.42
2023-03-06T15:59:10.842Z,1.55
2023-03-06T16:01:37.528Z,1.65
2023-03-06T16:04:04.064Z,1.58
2023-03-06T16:06:30.540Z,1.42
2023-03-06T16:08:56.948Z,1.27
2023-03-06T16:11:35.344Z,1.20
2023-03-06T16:14:21.012Z,1.25
2023-03-06T16:16:49.237Z,1.12
2023-03-06T16:19:26.455Z,1.01
2023-03-06T16:21:55.481Z,1.25
2023-03-06T16:24:22.042Z,1.33
2023-03-06T16:26:53.322Z,1.28
2023-03-06T16:29:26.439Z,1.22
2023-03-06T16:31:55.279Z,1.09
2023-03-06T16:34:21.919Z,1.10
2023-03-06T16:36:49.322Z,1.18
2023-03-06T16:39:21.269Z,1.19
2023-03-06T16:41:49.298Z,1.16
2023-03-06T16:44:15.878Z,1.12
2023-03-06T16:46:45.728Z,1.13
2023-03-06T16:49:20.825Z,1.18
2023-03-06T16:51:47.360Z,1.17
2023-03-06T16:54:13.914Z,1.10
2023-03-06T16:56:40.588Z,1.10
2023-03-06T16:59:07.191Z,1.20
2023-03-06T17:01:34.007Z,1.16
2023-03-06T17:04:00.610Z,1.12
2023-03-06T17:06:27.084Z,1.07
2023-03-06T17:08:53.692Z,1.10
2023-03-06T17:11:20.388Z,0.94
2023-03-06T17:13:48.047Z,0.98
2023-03-06T17:16:18.228Z,1.07
2023-03-06T17:18:45.626Z,0.93
2023-03-06T17:21:15.630Z,0.91
2023-03-06T17:23:42.816Z,1.07
2023-03-06T17:26:10.876Z,1.02
2023-03-06T17:28:38.203Z,1.00
2023-03-06T17:31:34.045Z,0.97
2023-03-06T17:34:00.608Z,1.00
2023-03-06T17:36:31.151Z,1.09
2023-03-06T17:38:59.505Z,1.05
2023-03-06T17:41:26.689Z,1.11
2023-03-06T17:43:55.732Z,1.16
2023-03-06T17:46:22.281Z,1.17
2023-03-06T17:48:48.737Z,1.02
2023-03-06T17:51:15.129Z,1.07
2023-03-06T17:53:41.658Z,1.08
2023-03-06T17:56:10.994Z,1.07
2023-03-06T17:58:37.393Z,1.09
2023-03-06T18:01:27.152Z,1.05
2023-03-06T18:03:53.726Z,1.13
2023-03-06T18:06:21.990Z,1.13
2023-03-06T18:08:51.021Z,1.10
2023-03-06T18:11:19.114Z,1.06
2023-03-06T18:13:46.393Z,0.99
2023-03-06T18:16:15.700Z,1.08
2023-03-06T18:18:42.167Z,1.09
2023-03-06T18:21:11.493Z,1.06
2023-03-06T18:23:38.912Z,0.98
2023-03-06T18:26:11.655Z,0.94
2023-03-06T18:28:42.184Z,0.93
2023-03-06T18:31:14.959Z,0.90
2023-03-06T18:33:41.440Z,0.89
2023-03-06T18:36:08.060Z,0.95
2023-03-06T18:38:34.506Z,0.85
2023-03-06T18:41:00.922Z,0.88
2023-03-06T18:43:27.315Z,0.88
2023-03-06T18:45:57.407Z,0.83
2023-03-06T18:48:24.428Z,0.84
2023-03-06T18:50:51.114Z,0.78
2023-03-06T18:53:18.329Z,0.76
2023-03-06T18:55:48.584Z,0.82
2023-03-06T18:58:15.018Z,0.78
2023-03-06T19:00:41.611Z,0.76
2023-03-06T19:03:08.081Z,0.63
2023-03-06T19:05:38.778Z,0.75
2023-03-06T19:08:05.385Z,0.77
2023-03-06T19:10:34.852Z,0.74
2023-03-06T19:13:01.240Z,0.75
2023-03-06T19:15:27.667Z,0.57
2023-03-06T19:17:54.074Z,0.55
2023-03-06T19:20:20.507Z,0.54
2023-03-06T19:22:46.890Z,0.62
2023-03-06T19:25:13.391Z,0.67
2023-03-06T19:27:39.993Z,0.54
2023-03-06T19:30:07.240Z,0.59
2023-03-06T19:32:33.757Z,0.67
2023-03-06T19:35:00.335Z,0.63
2023-03-06T19:37:26.829Z,0.62
2023-03-06T19:39:54.217Z,0.62
2023-03-06T19:42:21.031Z,0.59
2023-03-06T19:44:47.728Z,0.56
2023-03-06T19:47:14.143Z,0.54
2023-03-06T19:49:40.669Z,0.47
2023-03-06T19:52:07.572Z,0.47
2023-03-06T19:54:34.061Z,0.48
2023-03-06T19:57:00.466Z,0.48
2023-03-06T19:59:26.904Z,0.52
2023-03-06T20:01:53.332Z,0.52
2023-03-06T20:04:19.793Z,0.51
2023-03-06T20:06:49.507Z,0.53
2023-03-06T20:09:16.005Z,0.44
2023-03-06T20:11:42.499Z,0.50
2023-03-06T20:14:10.606Z,0.57
2023-03-06T20:16:37.234Z,0.62
2023-03-06T20:19:04.744Z,0.67
2023-03-06T20:21:35.409Z,0.70
2023-03-06T20:24:01.814Z,0.70
2023-03-06T20:26:29.545Z,0.71
2023-03-06T20:28:56.733Z,0.69
2023-03-06T20:31:26.904Z,0.70
2023-03-06T20:33:54.835Z,0.64
2023-03-06T20:36:27.927Z,0.61
2023-03-06T20:38:55.441Z,0.53
2023-03-06T20:41:24.903Z,0.55
2023-03-06T20:43:51.703Z,0.69
2023-03-06T20:46:19.719Z,0.64
2023-03-06T20:48:49.157Z,0.66
2023-03-06T20:51:21.480Z,0.69
2023-03-06T20:53:50.110Z,0.60
2023-03-06T20:56:19.666Z,0.61
2023-03-06T20:58:46.388Z,0.64
2023-03-06T21:01:24.887Z,0.57
2023-03-06T21:03:53.292Z,0.67
2023-03-06T21:06:20.854Z,0.76
2023-03-06T21:08:50.761Z,0.80
2023-03-06T21:11:18.116Z,0.69
2023-03-06T21:13:44.981Z,0.68
2023-03-06T21:16:17.277Z,0.77
2023-03-06T21:18:43.855Z,0.83
2023-03-06T21:21:21.982Z,0.83
2023-03-06T21:23:48.650Z,0.89
2023-03-06T21:26:18.433Z,0.89
2023-03-06T21:28:44.890Z,0.88
2023-03-06T21:31:13.243Z,0.75
2023-03-06T21:33:40.118Z,0.73
2023-03-06T21:36:07.280Z,0.69
2023-03-06T21:38:33.972Z,0.66
2023-03-06T21:41:18.398Z,0.64
2023-03-06T21:43:45.042Z,0.74
2023-03-06T21:46:13.546Z,0.75
2023-03-06T21:48:40.059Z,0.75
2023-03-06T21:51:08.216Z,0.73
2023-03-06T21:53:35.186Z,0.82
2023-03-06T21:56:02.862Z,0.87
2023-03-06T21:58:29.773Z,0.88
2023-03-06T22:00:56.829Z,0.88
2023-03-06T22:03:23.308Z,0.85
2023-03-06T22:05:51.851Z,0.77
2023-03-06T22:08:21.260Z,0.84
2023-03-06T22:10:48.890Z,0.89
2023-03-06T22:13:16.168Z,0.88
2023-03-06T22:15:50.300Z,0.92
2023-03-06T22:18:16.716Z,0.95
2023-03-06T22:20:43.158Z,0.96
2023-03-06T22:23:09.570Z,0.75
2023-03-06T22:25:35.995Z,0.78
2023-03-06T22:28:02.479Z,0.82
2023-03-06T22:30:28.875Z,0.92
2023-03-06T22:32:55.379Z,0.94
2023-03-06T22:35:21.798Z,0.95
2023-03-06T22:37:48.192Z,0.99
2023-03-06T22:40:14.686Z,0.99
2023-03-06T22:42:41.087Z,0.95
2023-03-06T22:45:08.260Z,0.95
2023-03-06T22:47:38.001Z,0.92
2023-03-06T22:50:05.557Z,0.96
2023-03-06T22:52:33.091Z,0.98
2023-03-06T22:54:59.508Z,1.03
2023-03-06T22:57:25.907Z,0.99
2023-03-06T22:59:52.353Z,1.02
2023-03-06T23:02:18.799Z,1.08
2023-03-06T23:04:52.128Z,0.95
2023-03-06T23:07:19.868Z,0.93
2023-03-06T23:09:47.192Z,0.95
2023-03-06T23:12:32.537Z,0.87
2023-03-06T23:15:17.418Z,0.89
2023-03-06T23:18:02.428Z,0.96
2023-03-06T23:20:47.397Z,0.96
2023-03-06T23:23:32.213Z,1.01
2023-03-06T23:26:00.259Z,1.03
2023-03-06T23:28:27.768Z,1.03
2023-03-06T23:30:54.213Z,1.08
2023-03-06T23:33:20.726Z,1.04
2023-03-06T23:35:47.275Z,1.04
2023-03-06T23:38:13.942Z,1.03
2023-03-06T23:40:40.710Z,0.99
2023-03-06T23:43:07.214Z,0.84
2023-03-06T23:45:33.814Z,0.59
2023-03-06T23:48:00.210Z,0.57
2023-03-06T23:50:26.695Z,0.51
2023-03-06T23:52:53.967Z,0.42
2023-03-06T23:55:20.563Z,0.28
2023-03-06T23:57:47.033Z,0.39
